sensor_id;sensor_type;location;lat;lon;timestamp;pressure;altitude;pressure_sealevel;temperature;humidity
25232;BME280;13176;51.140;6.290;2023-08-12T00:00:57;101081.72;;;25.97;91.42
25232;BME280;13176;51.140;6.290;2023-08-12T00:03:23;100993.13;;;25.64;91.28
25232;BME280;13176;51.140;6.290;2023-08-12T00:05:51;101086.41;;;26.18;91.08
25232;BME280;13176;51.140;6.290;2023-08-12T00:08:18;100980.53;;;25.53;89.90
25232;BME280;13176;51.140;6.290;2023-08-12T00:10:44;101055.59;;;26.13;90.03
25232;BME280;13176;51.140;6.290;2023-08-12T00:13:11;101002.75;;;25.79;89.50
25232;BME280;13176;51.140;6.290;2023-08-12T00:15:39;100994.41;;;25.71;89.78
25232;BME280;13176;51.140;6.290;2023-08-12T00:18:07;101053.44;;;26.18;89.46
25232;BME280;13176;51.140;6.290;2023-08-12T00:20:33;101049.19;;;26.03;88.72
25232;BME280;13176;51.140;6.290;2023-08-12T00:23:00;100988.63;;;25.52;90.17
25232;BME280;13176;51.140;6.290;2023-08-12T00:25:26;101016.13;;;25.54;90.57
25232;BME280;13176;51.140;6.290;2023-08-12T00:27:53;101068.50;;;25.83;91.73
25232;BME280;13176;51.140;6.290;2023-08-12T00:30:19;101035.28;;;25.73;91.89
25232;BME280;13176;51.140;6.290;2023-08-12T00:32:47;101027.13;;;25.74;92.42
25232;BME280;13176;51.140;6.290;2023-08-12T00:35:13;101059.25;;;25.99;92.22
25232;BME280;13176;51.140;6.290;2023-08-12T00:37:40;100978.41;;;25.46;91.49
25232;BME280;13176;51.140;6.290;2023-08-12T00:40:07;101051.34;;;25.73;93.41
25232;BME280;13176;51.140;6.290;2023-08-12T00:42:33;101052.16;;;25.73;93.43
25232;BME280;13176;51.140;6.290;2023-08-12T00:45:00;101037.75;;;25.76;92.94
25232;BME280;13176;51.140;6.290;2023-08-12T00:47:28;100957.66;;;25.25;92.27
25232;BME280;13176;51.140;6.290;2023-08-12T00:49:55;100937.34;;;25.22;92.18
25232;BME280;13176;51.140;6.290;2023-08-12T00:52:27;100960.34;;;25.37;92.86
25232;BME280;13176;51.140;6.290;2023-08-12T00:54:54;101034.47;;;25.85;92.99
25232;BME280;13176;51.140;6.290;2023-08-12T00:57:21;101008.75;;;25.70;92.58
25232;BME280;13176;51.140;6.290;2023-08-12T00:59:49;100946.31;;;25.21;92.21
25232;BME280;13176;51.140;6.290;2023-08-12T01:02:15;100893.50;;;25.00;92.25
25232;BME280;13176;51.140;6.290;2023-08-12T01:04:42;101026.94;;;25.90;92.05
25232;BME280;13176;51.140;6.290;2023-08-12T01:07:08;101034.22;;;26.00;90.93
25232;BME280;13176;51.140;6.290;2023-08-12T01:09:35;101020.31;;;25.95;90.69
25232;BME280;13176;51.140;6.290;2023-08-12T01:12:23;101036.34;;;26.08;90.80
25232;BME280;13176;51.140;6.290;2023-08-12T01:15:02;100954.84;;;25.51;90.33
25232;BME280;13176;51.140;6.290;2023-08-12T01:17:31;101037.84;;;25.87;91.45
25232;BME280;13176;51.140;6.290;2023-08-12T01:19:59;101027.41;;;25.84;91.54
25232;BME280;13176;51.140;6.290;2023-08-12T01:22:30;101029.31;;;25.94;91.18
25232;BME280;13176;51.140;6.290;2023-08-12T01:24:58;101011.09;;;25.74;89.98
25232;BME280;13176;51.140;6.290;2023-08-12T01:27:27;100990.56;;;25.75;90.18
25232;BME280;13176;51.140;6.290;2023-08-12T01:29:54;100966.72;;;25.59;90.73
25232;BME280;13176;51.140;6.290;2023-08-12T01:35:05;100994.19;;;25.74;90.45
25232;BME280;13176;51.140;6.290;2023-08-12T01:37:35;101018.41;;;25.85;91.56
25232;BME280;13176;51.140;6.290;2023-08-12T01:40:06;101007.81;;;25.58;92.49
25232;BME280;13176;51.140;6.290;2023-08-12T01:42:36;100919.59;;;25.21;92.04
25232;BME280;13176;51.140;6.290;2023-08-12T01:45:07;100903.56;;;25.21;92.83
25232;BME280;13176;51.140;6.290;2023-08-12T01:47:34;100974.19;;;25.67;92.80
25232;BME280;13176;51.140;6.290;2023-08-12T01:50:00;100906.56;;;25.29;92.74
25232;BME280;13176;51.140;6.290;2023-08-12T01:52:27;100897.25;;;25.22;92.83
25232;BME280;13176;51.140;6.290;2023-08-12T01:54:53;100978.59;;;25.68;93.29
25232;BME280;13176;51.140;6.290;2023-08-12T01:57:20;100996.00;;;25.73;93.25
25232;BME280;13176;51.140;6.290;2023-08-12T01:59:46;101012.19;;;25.84;93.00
25232;BME280;13176;51.140;6.290;2023-08-12T02:02:13;100986.19;;;25.74;92.45
25232;BME280;13176;51.140;6.290;2023-08-12T02:04:40;101004.28;;;25.83;92.79
25232;BME280;13176;51.140;6.290;2023-08-12T02:07:06;100994.28;;;25.72;92.88
25232;BME280;13176;51.140;6.290;2023-08-12T02:09:33;100946.97;;;25.37;93.09
25232;BME280;13176;51.140;6.290;2023-08-12T02:11:59;100984.91;;;25.67;93.03
25232;BME280;13176;51.140;6.290;2023-08-12T02:14:26;100862.50;;;24.97;92.48
25232;BME280;13176;51.140;6.290;2023-08-12T02:16:52;100873.09;;;25.11;91.75
25232;BME280;13176;51.140;6.290;2023-08-12T02:19:19;100868.06;;;25.19;91.33
25232;BME280;13176;51.140;6.290;2023-08-12T02:21:45;100903.78;;;25.31;91.00
25232;BME280;13176;51.140;6.290;2023-08-12T02:24:12;100818.59;;;24.76;91.13
25232;BME280;13176;51.140;6.290;2023-08-12T02:26:39;100973.06;;;25.46;92.26
25232;BME280;13176;51.140;6.290;2023-08-12T02:29:06;100961.81;;;25.41;92.54
25232;BME280;13176;51.140;6.290;2023-08-12T02:31:35;100899.50;;;25.16;92.11
25232;BME280;13176;51.140;6.290;2023-08-12T02:34:05;100835.38;;;24.78;91.96
25232;BME280;13176;51.140;6.290;2023-08-12T02:36:32;100924.56;;;25.13;93.83
25232;BME280;13176;51.140;6.290;2023-08-12T02:38:58;100828.53;;;24.62;93.51
25232;BME280;13176;51.140;6.290;2023-08-12T02:41:25;100913.41;;;25.21;92.88
25232;BME280;13176;51.140;6.290;2023-08-12T02:43:51;100860.81;;;24.96;92.71
25232;BME280;13176;51.140;6.290;2023-08-12T02:46:18;100864.88;;;25.14;92.55
25232;BME280;13176;51.140;6.290;2023-08-12T02:48:45;100857.06;;;25.11;92.10
25232;BME280;13176;51.140;6.290;2023-08-12T02:51:14;100915.28;;;25.56;91.85
25232;BME280;13176;51.140;6.290;2023-08-12T02:53:43;100739.88;;;24.44;92.30
25232;BME280;13176;51.140;6.290;2023-08-12T02:56:09;100944.56;;;25.70;91.98
25232;BME280;13176;51.140;6.290;2023-08-12T02:58:36;100944.34;;;25.73;91.37
25232;BME280;13176;51.140;6.290;2023-08-12T03:01:03;100906.72;;;25.51;92.07
25232;BME280;13176;51.140;6.290;2023-08-12T03:03:32;100833.88;;;24.99;91.65
25232;BME280;13176;51.140;6.290;2023-08-12T03:06:01;100920.53;;;25.57;91.28
25232;BME280;13176;51.140;6.290;2023-08-12T03:08:30;100915.50;;;25.53;90.89
25232;BME280;13176;51.140;6.290;2023-08-12T03:11:03;100884.53;;;25.38;91.56
25232;BME280;13176;51.140;6.290;2023-08-12T03:13:30;100937.28;;;25.72;91.63
25232;BME280;13176;51.140;6.290;2023-08-12T03:15:56;100891.38;;;25.42;91.66
25232;BME280;13176;51.140;6.290;2023-08-12T03:18:23;100840.06;;;25.12;91.94
25232;BME280;13176;51.140;6.290;2023-08-12T03:20:52;100836.00;;;25.19;91.28
25232;BME280;13176;51.140;6.290;2023-08-12T03:23:19;100889.66;;;25.41;91.03
25232;BME280;13176;51.140;6.290;2023-08-12T03:25:48;100910.44;;;25.61;91.60
25232;BME280;13176;51.140;6.290;2023-08-12T03:28:16;100915.06;;;25.59;91.17
25232;BME280;13176;51.140;6.290;2023-08-12T03:30:42;100825.53;;;25.16;91.74
25232;BME280;13176;51.140;6.290;2023-08-12T03:33:08;100882.16;;;25.46;91.48
25232;BME280;13176;51.140;6.290;2023-08-12T03:35:35;100890.69;;;25.51;91.53
25232;BME280;13176;51.140;6.290;2023-08-12T03:38:01;100882.16;;;25.46;92.31
25232;BME280;13176;51.140;6.290;2023-08-12T03:40:28;100790.81;;;24.91;92.33
25232;BME280;13176;51.140;6.290;2023-08-12T03:42:54;100851.59;;;25.25;92.80
25232;BME280;13176;51.140;6.290;2023-08-12T03:45:21;100802.47;;;24.90;92.39
25232;BME280;13176;51.140;6.290;2023-08-12T03:47:52;100844.53;;;25.12;92.70
25232;BME280;13176;51.140;6.290;2023-08-12T03:50:25;100833.44;;;25.05;91.96
25232;BME280;13176;51.140;6.290;2023-08-12T03:52:53;100860.91;;;25.07;92.94
25232;BME280;13176;51.140;6.290;2023-08-12T03:55:22;100864.53;;;25.06;93.65
25232;BME280;13176;51.140;6.290;2023-08-12T03:57:49;100864.00;;;25.01;94.40
25232;BME280;13176;51.140;6.290;2023-08-12T04:00:15;100816.59;;;24.67;94.28
25232;BME280;13176;51.140;6.290;2023-08-12T04:02:43;100797.25;;;24.51;93.83
25232;BME280;13176;51.140;6.290;2023-08-12T04:05:09;100824.69;;;24.78;93.81
25232;BME280;13176;51.140;6.290;2023-08-12T04:07:36;100853.63;;;24.97;94.34
25232;BME280;13176;51.140;6.290;2023-08-12T04:10:04;100872.22;;;25.11;94.02
25232;BME280;13176;51.140;6.290;2023-08-12T04:12:31;100794.78;;;24.61;94.32
25232;BME280;13176;51.140;6.290;2023-08-12T04:14:57;100853.72;;;25.08;93.49
25232;BME280;13176;51.140;6.290;2023-08-12T04:17:25;100828.97;;;24.93;93.25
25232;BME280;13176;51.140;6.290;2023-08-12T04:19:52;100854.72;;;25.19;92.84
25232;BME280;13176;51.140;6.290;2023-08-12T04:22:18;100785.59;;;24.90;92.40
25232;BME280;13176;51.140;6.290;2023-08-12T04:24:45;100724.53;;;24.60;91.66
25232;BME280;13176;51.140;6.290;2023-08-12T04:27:11;100829.38;;;25.12;91.74
25232;BME280;13176;51.140;6.290;2023-08-12T04:29:38;100833.44;;;25.05;92.42
25232;BME280;13176;51.140;6.290;2023-08-12T04:32:05;100845.41;;;25.12;92.57
25232;BME280;13176;51.140;6.290;2023-08-12T04:34:31;100840.06;;;25.12;93.20
25232;BME280;13176;51.140;6.290;2023-08-12T04:37:00;100849.47;;;25.30;92.75
25232;BME280;13176;51.140;6.290;2023-08-12T04:39:26;100856.66;;;25.53;92.36
25232;BME280;13176;51.140;6.290;2023-08-12T04:41:53;100781.94;;;25.03;92.54
25232;BME280;13176;51.140;6.290;2023-08-12T04:44:20;100848.59;;;25.42;91.92
25232;BME280;13176;51.140;6.290;2023-08-12T04:46:47;100844.94;;;25.43;91.60
25232;BME280;13176;51.140;6.290;2023-08-12T04:49:13;100787.69;;;25.10;91.05
25232;BME280;13176;51.140;6.290;2023-08-12T04:51:40;100796.25;;;25.15;90.81
25232;BME280;13176;51.140;6.290;2023-08-12T04:54:08;100702.56;;;24.57;91.50
25232;BME280;13176;51.140;6.290;2023-08-12T04:56:35;100851.53;;;25.50;91.53
25232;BME280;13176;51.140;6.290;2023-08-12T04:59:01;100722.19;;;24.68;91.36
25232;BME280;13176;51.140;6.290;2023-08-12T05:01:32;100752.56;;;25.03;90.69
25232;BME280;13176;51.140;6.290;2023-08-12T05:03:59;100717.34;;;24.86;91.21
25232;BME280;13176;51.140;6.290;2023-08-12T05:06:26;100660.69;;;24.57;90.83
25232;BME280;13176;51.140;6.290;2023-08-12T05:08:52;100725.00;;;24.90;89.87
25232;BME280;13176;51.140;6.290;2023-08-12T05:11:19;100686.50;;;24.69;90.01
25232;BME280;13176;51.140;6.290;2023-08-12T05:13:45;100810.13;;;25.32;90.58
25232;BME280;13176;51.140;6.290;2023-08-12T05:16:13;100783.84;;;25.26;90.80
25232;BME280;13176;51.140;6.290;2023-08-12T05:18:42;100796.34;;;25.26;91.02
25232;BME280;13176;51.140;6.290;2023-08-12T05:21:08;100816.78;;;25.27;91.42
25232;BME280;13176;51.140;6.290;2023-08-12T05:23:35;100832.78;;;25.39;91.58
25232;BME280;13176;51.140;6.290;2023-08-12T05:26:01;100836.63;;;25.35;91.49
25232;BME280;13176;51.140;6.290;2023-08-12T05:28:28;100833.34;;;25.19;91.63
25232;BME280;13176;51.140;6.290;2023-08-12T05:30:54;100841.03;;;25.11;92.88
25232;BME280;13176;51.140;6.290;2023-08-12T05:33:21;100751.66;;;24.67;92.96
25232;BME280;13176;51.140;6.290;2023-08-12T05:35:48;100830.47;;;24.97;93.03
25232;BME280;13176;51.140;6.290;2023-08-12T05:38:15;100842.41;;;24.54;97.50
25232;BME280;13176;51.140;6.290;2023-08-12T05:40:42;100849.84;;;24.37;100.00
25232;BME280;13176;51.140;6.290;2023-08-12T05:43:08;100843.03;;;24.07;100.00
25232;BME280;13176;51.140;6.290;2023-08-12T05:45:35;100853.25;;;24.00;100.00
25232;BME280;13176;51.140;6.290;2023-08-12T05:48:01;100837.22;;;23.88;100.00
25232;BME280;13176;51.140;6.290;2023-08-12T05:50:28;100856.72;;;23.88;100.00
25232;BME280;13176;51.140;6.290;2023-08-12T05:52:54;100861.41;;;23.85;100.00
25232;BME280;13176;51.140;6.290;2023-08-12T05:55:21;100838.38;;;23.84;100.00
25232;BME280;13176;51.140;6.290;2023-08-12T05:57:47;100833.59;;;23.75;100.00
25232;BME280;13176;51.140;6.290;2023-08-12T06:00:14;100766.16;;;23.34;100.00
25232;BME280;13176;51.140;6.290;2023-08-12T06:02:40;100844.78;;;23.81;100.00
25232;BME280;13176;51.140;6.290;2023-08-12T06:05:07;100832.09;;;23.71;100.00
25232;BME280;13176;51.140;6.290;2023-08-12T06:07:34;100809.69;;;23.61;100.00
25232;BME280;13176;51.140;6.290;2023-08-12T06:10:01;100837.81;;;23.79;100.00
25232;BME280;13176;51.140;6.290;2023-08-12T06:12:27;100826.75;;;23.71;100.00
25232;BME280;13176;51.140;6.290;2023-08-12T06:14:54;100812.16;;;23.64;100.00
25232;BME280;13176;51.140;6.290;2023-08-12T06:17:20;100736.53;;;23.12;100.00
25232;BME280;13176;51.140;6.290;2023-08-12T06:19:47;100820.94;;;23.52;100.00
25232;BME280;13176;51.140;6.290;2023-08-12T06:22:13;100834.63;;;23.60;100.00
25232;BME280;13176;51.140;6.290;2023-08-12T06:24:40;100833.09;;;23.56;100.00
25232;BME280;13176;51.140;6.290;2023-08-12T06:27:06;100827.78;;;23.56;100.00
25232;BME280;13176;51.140;6.290;2023-08-12T06:29:33;100775.84;;;23.35;100.00
25232;BME280;13176;51.140;6.290;2023-08-12T06:31:59;100821.56;;;23.96;100.00
25232;BME280;13176;51.140;6.290;2023-08-12T06:34:26;100793.19;;;23.95;100.00
25232;BME280;13176;51.140;6.290;2023-08-12T06:36:53;100776.09;;;23.85;100.00
25232;BME280;13176;51.140;6.290;2023-08-12T06:39:21;100766.91;;;23.62;100.00
25232;BME280;13176;51.140;6.290;2023-08-12T06:41:48;100768.19;;;23.57;100.00
25232;BME280;13176;51.140;6.290;2023-08-12T06:44:14;100762.31;;;23.78;100.00
25232;BME280;13176;51.140;6.290;2023-08-12T06:46:41;100745.16;;;23.82;100.00
25232;BME280;13176;51.140;6.290;2023-08-12T06:49:07;100780.22;;;24.03;100.00
25232;BME280;13176;51.140;6.290;2023-08-12T06:51:34;100756.47;;;23.86;100.00
25232;BME280;13176;51.140;6.290;2023-08-12T06:54:00;100766.53;;;24.07;100.00
25232;BME280;13176;51.140;6.290;2023-08-12T06:56:27;100762.09;;;24.20;100.00
25232;BME280;13176;51.140;6.290;2023-08-12T06:58:53;100775.97;;;24.37;100.00
25232;BME280;13176;51.140;6.290;2023-08-12T07:01:20;100767.44;;;24.32;100.00
25232;BME280;13176;51.140;6.290;2023-08-12T07:03:46;100766.78;;;24.41;100.00
25232;BME280;13176;51.140;6.290;2023-08-12T07:06:13;100801.75;;;24.51;100.00
25232;BME280;13176;51.140;6.290;2023-08-12T07:08:39;100803.88;;;24.58;100.00
25232;BME280;13176;51.140;6.290;2023-08-12T07:11:05;100790.75;;;24.55;100.00
25232;BME280;13176;51.140;6.290;2023-08-12T07:13:32;100753.69;;;24.38;100.00
25232;BME280;13176;51.140;6.290;2023-08-12T07:16:00;100767.88;;;24.51;100.00
25232;BME280;13176;51.140;6.290;2023-08-12T07:18:27;100784.84;;;24.50;100.00
25232;BME280;13176;51.140;6.290;2023-08-12T07:20:53;100734.34;;;24.23;100.00
25232;BME280;13176;51.140;6.290;2023-08-12T07:23:19;100798.00;;;24.66;100.00
25232;BME280;13176;51.140;6.290;2023-08-12T07:25:46;100720.44;;;24.18;100.00
25232;BME280;13176;51.140;6.290;2023-08-12T07:28:13;100793.94;;;24.48;100.00
25232;BME280;13176;51.140;6.290;2023-08-12T07:30:39;100777.03;;;24.23;100.00
25232;BME280;13176;51.140;6.290;2023-08-12T07:33:06;100795.88;;;24.58;99.76
25232;BME280;13176;51.140;6.290;2023-08-12T07:35:33;100787.09;;;24.69;99.88
25232;BME280;13176;51.140;6.290;2023-08-12T07:38:00;100786.34;;;24.67;99.55
25232;BME280;13176;51.140;6.290;2023-08-12T07:40:29;100770.25;;;24.56;100.00
25232;BME280;13176;51.140;6.290;2023-08-12T07:42:58;100786.41;;;24.40;100.00
25232;BME280;13176;51.140;6.290;2023-08-12T07:45:25;100798.41;;;24.60;100.00
25232;BME280;13176;51.140;6.290;2023-08-12T07:47:55;100765.94;;;24.41;99.74
25232;BME280;13176;51.140;6.290;2023-08-12T07:50:22;100749.06;;;24.40;99.83
25232;BME280;13176;51.140;6.290;2023-08-12T07:52:48;100774.31;;;24.61;99.07
25232;BME280;13176;51.140;6.290;2023-08-12T07:55:16;100761.28;;;24.69;99.01
25232;BME280;13176;51.140;6.290;2023-08-12T07:57:42;100776.19;;;24.84;98.94
25232;BME280;13176;51.140;6.290;2023-08-12T08:00:12;100719.06;;;24.37;98.42
25232;BME280;13176;51.140;6.290;2023-08-12T08:02:39;100795.41;;;24.89;100.00
25232;BME280;13176;51.140;6.290;2023-08-12T08:05:06;100619.53;;;23.99;99.62
25232;BME280;13176;51.140;6.290;2023-08-12T08:07:33;100721.34;;;24.55;99.78
25232;BME280;13176;51.140;6.290;2023-08-12T08:10:00;100700.19;;;24.40;98.61
25232;BME280;13176;51.140;6.290;2023-08-12T08:15:37;100644.28;;;24.01;99.36
25232;BME280;13176;51.140;6.290;2023-08-12T08:18:04;100719.84;;;24.51;100.00
25232;BME280;13176;51.140;6.290;2023-08-12T08:20:33;100781.53;;;24.84;98.59
25232;BME280;13176;51.140;6.290;2023-08-12T08:22:59;100708.72;;;24.32;98.10
25232;BME280;13176;51.140;6.290;2023-08-12T08:25:26;100783.66;;;24.79;98.17
25232;BME280;13176;51.140;6.290;2023-08-12T08:27:53;100734.53;;;24.44;98.76
25232;BME280;13176;51.140;6.290;2023-08-12T08:30:29;100707.44;;;24.26;99.25
25232;BME280;13176;51.140;6.290;2023-08-12T08:32:55;100707.88;;;24.20;98.51
25232;BME280;13176;51.140;6.290;2023-08-12T08:35:22;100702.38;;;23.84;99.50
25232;BME280;13176;51.140;6.290;2023-08-12T08:37:48;100684.72;;;23.69;100.00
25232;BME280;13176;51.140;6.290;2023-08-12T08:40:17;100729.41;;;23.92;100.00
25232;BME280;13176;51.140;6.290;2023-08-12T08:42:51;100749.66;;;24.07;100.00
25232;BME280;13176;51.140;6.290;2023-08-12T08:45:21;100775.94;;;24.25;100.00
25232;BME280;13176;51.140;6.290;2023-08-12T08:47:51;100772.34;;;24.38;99.95
25232;BME280;13176;51.140;6.290;2023-08-12T08:50:18;100804.63;;;24.73;99.65
25232;BME280;13176;51.140;6.290;2023-08-12T08:52:47;100782.78;;;24.17;99.19
25232;BME280;13176;51.140;6.290;2023-08-12T08:55:15;100793.47;;;24.41;99.76
25232;BME280;13176;51.140;6.290;2023-08-12T08:57:43;100698.06;;;23.69;100.00
25232;BME280;13176;51.140;6.290;2023-08-12T09:00:14;100800.81;;;24.26;100.00
25232;BME280;13176;51.140;6.290;2023-08-12T09:02:45;100819.56;;;24.50;100.00
25232;BME280;13176;51.140;6.290;2023-08-12T09:05:14;100817.63;;;24.52;99.58
25232;BME280;13176;51.140;6.290;2023-08-12T09:07:42;100780.31;;;24.26;100.00
25232;BME280;13176;51.140;6.290;2023-08-12T09:10:12;100757.06;;;24.16;99.00
25232;BME280;13176;51.140;6.290;2023-08-12T09:12:43;100825.22;;;24.71;99.92
25232;BME280;13176;51.140;6.290;2023-08-12T09:15:10;100756.97;;;24.29;99.16
25232;BME280;13176;51.140;6.290;2023-08-12T09:17:39;100749.66;;;24.07;99.15
25232;BME280;13176;51.140;6.290;2023-08-12T09:20:06;100769.81;;;24.49;100.00
25232;BME280;13176;51.140;6.290;2023-08-12T09:22:42;100745.13;;;24.33;99.54
25232;BME280;13176;51.140;6.290;2023-08-12T09:25:12;100806.25;;;24.75;99.02
25232;BME280;13176;51.140;6.290;2023-08-12T09:27:39;100825.44;;;24.93;98.10
25232;BME280;13176;51.140;6.290;2023-08-12T09:30:06;100785.19;;;24.71;97.94
25232;BME280;13176;51.140;6.290;2023-08-12T09:32:33;100818.50;;;24.90;99.29
25232;BME280;13176;51.140;6.290;2023-08-12T09:35:05;100788.06;;;24.55;98.22
25232;BME280;13176;51.140;6.290;2023-08-12T09:37:32;100825.34;;;24.69;98.92
25232;BME280;13176;51.140;6.290;2023-08-12T09:40:03;100787.28;;;24.28;99.90
25232;BME280;13176;51.140;6.290;2023-08-12T09:42:32;100747.25;;;24.16;100.00
25232;BME280;13176;51.140;6.290;2023-08-12T09:44:59;100755.25;;;24.28;100.00
25232;BME280;13176;51.140;6.290;2023-08-12T09:47:26;100748.44;;;24.25;100.00
25232;BME280;13176;51.140;6.290;2023-08-12T09:49:54;100837.94;;;24.80;100.00
25232;BME280;13176;51.140;6.290;2023-08-12T09:52:21;100731.19;;;24.04;100.00
25232;BME280;13176;51.140;6.290;2023-08-12T09:54:49;100695.34;;;23.83;100.00
25232;BME280;13176;51.140;6.290;2023-08-12T09:57:22;100838.16;;;24.77;100.00
25232;BME280;13176;51.140;6.290;2023-08-12T09:59:52;100667.13;;;23.66;100.00
25232;BME280;13176;51.140;6.290;2023-08-12T10:02:20;100834.06;;;24.59;100.00
25232;BME280;13176;51.140;6.290;2023-08-12T10:04:50;100836.03;;;24.69;100.00
25232;BME280;13176;51.140;6.290;2023-08-12T10:07:20;100672.59;;;23.65;100.00
25232;BME280;13176;51.140;6.290;2023-08-12T10:09:53;100684.41;;;23.61;100.00
25232;BME280;13176;51.140;6.290;2023-08-12T10:12:24;100813.06;;;24.16;100.00
25232;BME280;13176;51.140;6.290;2023-08-12T10:14:51;100632.56;;;23.13;100.00
25232;BME280;13176;51.140;6.290;2023-08-12T10:17:18;100800.50;;;24.18;100.00
25232;BME280;13176;51.140;6.290;2023-08-12T10:20:06;100806.25;;;24.24;100.00
25232;BME280;13176;51.140;6.290;2023-08-12T10:22:35;100737.19;;;23.95;100.00
25232;BME280;13176;51.140;6.290;2023-08-12T10:25:02;100701.56;;;23.57;100.00
25232;BME280;13176;51.140;6.290;2023-08-12T10:27:29;100661.03;;;23.52;100.00
25232;BME280;13176;51.140;6.290;2023-08-12T10:30:06;100701.66;;;23.94;100.00
25232;BME280;13176;51.140;6.290;2023-08-12T10:32:34;100702.31;;;23.98;100.00
25232;BME280;13176;51.140;6.290;2023-08-12T10:35:01;100764.00;;;24.43;100.00
25232;BME280;13176;51.140;6.290;2023-08-12T10:37:35;100762.59;;;24.25;100.00
25232;BME280;13176;51.140;6.290;2023-08-12T10:40:05;100821.06;;;24.79;100.00
25232;BME280;13176;51.140;6.290;2023-08-12T10:42:45;100822.34;;;24.86;100.00
25232;BME280;13176;51.140;6.290;2023-08-12T10:45:18;100805.25;;;24.64;100.00
25232;BME280;13176;51.140;6.290;2023-08-12T10:48:09;100720.38;;;24.19;100.00
25232;BME280;13176;51.140;6.290;2023-08-12T10:50:53;100710.88;;;24.27;100.00
25232;BME280;13176;51.140;6.290;2023-08-12T10:53:32;100673.41;;;24.17;100.00
25232;BME280;13176;51.140;6.290;2023-08-12T10:56:28;100805.66;;;25.08;100.00
25232;BME280;13176;51.140;6.290;2023-08-12T10:58:57;100722.41;;;24.65;100.00
25232;BME280;13176;51.140;6.290;2023-08-12T11:01:24;100754.31;;;24.92;100.00
25232;BME280;13176;51.140;6.290;2023-08-12T11:03:51;100713.53;;;24.52;100.00
25232;BME280;13176;51.140;6.290;2023-08-12T11:06:22;100729.00;;;24.72;100.00
25232;BME280;13176;51.140;6.290;2023-08-12T11:08:58;100716.16;;;24.90;99.95
25232;BME280;13176;51.140;6.290;2023-08-12T11:11:26;100638.88;;;24.63;99.35
25232;BME280;13176;51.140;6.290;2023-08-12T11:13:56;100721.69;;;25.35;96.87
25232;BME280;13176;51.140;6.290;2023-08-12T11:16:35;100738.53;;;25.48;97.28
25232;BME280;13176;51.140;6.290;2023-08-12T11:19:04;100680.97;;;25.32;97.76
25232;BME280;13176;51.140;6.290;2023-08-12T11:21:31;100663.94;;;25.09;97.11
25232;BME280;13176;51.140;6.290;2023-08-12T11:23:59;100771.69;;;25.69;95.40
25232;BME280;13176;51.140;6.290;2023-08-12T11:26:25;100772.59;;;25.57;95.91
25232;BME280;13176;51.140;6.290;2023-08-12T11:28:53;100798.50;;;25.08;93.14
25232;BME280;13176;51.140;6.290;2023-08-12T11:31:19;100785.59;;;24.77;95.61
25232;BME280;13176;51.140;6.290;2023-08-12T11:33:48;100789.75;;;24.44;97.83
25232;BME280;13176;51.140;6.290;2023-08-12T11:36:15;100807.94;;;24.13;100.00
25232;BME280;13176;51.140;6.290;2023-08-12T11:38:42;100660.34;;;23.36;100.00
25232;BME280;13176;51.140;6.290;2023-08-12T11:41:09;100705.84;;;23.33;100.00
25232;BME280;13176;51.140;6.290;2023-08-12T11:43:35;100686.50;;;23.03;100.00
25232;BME280;13176;51.140;6.290;2023-08-12T11:46:02;100773.38;;;23.32;100.00
25232;BME280;13176;51.140;6.290;2023-08-12T11:48:32;100811.91;;;23.81;100.00
25232;BME280;13176;51.140;6.290;2023-08-12T11:51:01;100810.47;;;23.49;100.00
25232;BME280;13176;51.140;6.290;2023-08-12T11:53:28;100813.09;;;23.63;100.00
25232;BME280;13176;51.140;6.290;2023-08-12T11:55:55;100742.72;;;23.12;100.00
25232;BME280;13176;51.140;6.290;2023-08-12T11:58:23;100798.81;;;23.64;100.00
25232;BME280;13176;51.140;6.290;2023-08-12T12:00:49;100802.47;;;23.75;100.00
25232;BME280;13176;51.140;6.290;2023-08-12T12:03:16;100818.03;;;23.95;100.00
25232;BME280;13176;51.140;6.290;2023-08-12T12:05:46;100809.75;;;24.00;100.00
25232;BME280;13176;51.140;6.290;2023-08-12T12:08:13;100806.56;;;23.81;100.00
25232;BME280;13176;51.140;6.290;2023-08-12T12:10:40;100803.38;;;23.88;100.00
25232;BME280;13176;51.140;6.290;2023-08-12T12:13:07;100746.72;;;23.46;100.00
25232;BME280;13176;51.140;6.290;2023-08-12T12:15:41;100821.38;;;23.99;100.00
25232;BME280;13176;51.140;6.290;2023-08-12T12:18:12;100821.00;;;24.17;100.00
25232;BME280;13176;51.140;6.290;2023-08-12T12:20:58;100827.56;;;24.12;100.00
25232;BME280;13176;51.140;6.290;2023-08-12T12:23:28;100841.22;;;24.07;100.00
25232;BME280;13176;51.140;6.290;2023-08-12T12:26:03;100781.16;;;23.49;100.00
25232;BME280;13176;51.140;6.290;2023-08-12T12:28:30;100829.81;;;23.79;100.00
25232;BME280;13176;51.140;6.290;2023-08-12T12:30:56;100812.06;;;23.92;100.00
25232;BME280;13176;51.140;6.290;2023-08-12T12:33:23;100816.19;;;23.83;100.00
25232;BME280;13176;51.140;6.290;2023-08-12T12:35:49;100824.28;;;23.82;100.00
25232;BME280;13176;51.140;6.290;2023-08-12T12:38:25;100764.66;;;23.56;100.00
25232;BME280;13176;51.140;6.290;2023-08-12T12:40:51;100777.56;;;23.36;100.00
25232;BME280;13176;51.140;6.290;2023-08-12T12:43:22;100823.44;;;22.99;100.00
25232;BME280;13176;51.140;6.290;2023-08-12T12:45:48;100806.50;;;22.44;100.00
25232;BME280;13176;51.140;6.290;2023-08-12T12:48:15;100758.44;;;22.47;100.00
25232;BME280;13176;51.140;6.290;2023-08-12T12:50:41;100785.13;;;22.88;100.00
25232;BME280;13176;51.140;6.290;2023-08-12T12:53:08;100869.47;;;23.43;100.00
25232;BME280;13176;51.140;6.290;2023-08-12T12:55:35;100843.38;;;23.62;100.00